Time;durP1;ratioP1;P1;durP2;ratioP2;P2;SDS_P1;SDS_P2;PMS_P1;PMS_P2;Temp;Humidity;BMP_temperature;BMP_pressure;BME280_temperature;BME280_humidity;BME280_pressure;Samples;Min_cycle;Max_cycle;Signal;HPM_P1;HPM_P2
2021/04/01 00:08:58;;;;;;;10.47;3.30;;;11.80;99.90;;;;;;20944110;28;20056;-78
2021/04/01 00:19:00;;;;;;;4.25;2.55;;;11.60;99.90;;;;;;20948943;28;20135;-78
2021/04/01 00:29:01;;;;;;;7.93;3.10;;;11.60;99.90;;;;;;20949279;28;20650;-79
2021/04/01 00:39:02;;;;;;;7.28;3.10;;;11.40;99.90;;;;;;20944225;28;20036;-79
2021/04/01 00:49:03;;;;;;;8.67;3.17;;;11.00;99.90;;;;;;20946259;28;20036;-79
2021/04/01 00:59:06;;;;;;;5.60;2.77;;;10.90;99.90;;;;;;20945945;28;20033;-79
2021/04/01 01:09:08;;;;;;;9.30;3.72;;;10.90;99.90;;;;;;20946704;28;20453;-78
2021/04/01 01:19:09;;;;;;;;;;;10.80;99.90;;;;;;20945743;28;20051;-78
2021/04/01 01:29:10;;;;;;;6.72;3.47;;;10.60;99.90;;;;;;20949632;28;19917;-79
2021/04/01 01:39:11;;;;;;;7.10;3.50;;;10.50;99.90;;;;;;20886952;28;20423;-78
2021/04/01 01:49:12;;;;;;;7.68;3.20;;;10.00;99.90;;;;;;20888171;28;20095;-78
2021/04/01 01:59:13;;;;;;;14.07;3.40;;;10.10;99.90;;;;;;20930122;28;20131;-78
2021/04/01 02:09:14;;;;;;;13.80;3.77;;;10.10;99.90;;;;;;20950209;28;20037;-78
2021/04/01 02:19:15;;;;;;;10.60;3.37;;;10.00;99.90;;;;;;20953611;28;20051;-78
2021/04/01 02:29:16;;;;;;;11.60;3.03;;;9.90;99.90;;;;;;20953038;28;20036;-78
2021/04/01 02:39:17;;;;;;;7.60;3.57;;;9.70;99.90;;;;;;20937444;28;20029;-78
2021/04/01 02:49:17;;;;;;;8.73;3.20;;;8.80;99.90;;;;;;20938278;28;20052;-78
2021/04/01 02:59:18;;;;;;;12.40;2.90;;;8.90;99.90;;;;;;20945825;28;20357;-78
2021/04/01 03:09:19;;;;;;;6.43;2.83;;;9.10;99.90;;;;;;20957104;28;20079;-77
2021/04/01 03:19:20;;;;;;;8.47;3.37;;;9.20;99.90;;;;;;20955755;28;20024;-78
2021/04/01 03:29:21;;;;;;;8.77;2.87;;;9.10;99.90;;;;;;20953935;28;20025;-78
2021/04/01 03:39:22;;;;;;;15.97;3.23;;;8.90;99.90;;;;;;20955352;28;20025;-78
2021/04/01 03:49:23;;;;;;;9.77;3.33;;;8.70;99.90;;;;;;20946984;28;20371;-78
2021/04/01 03:59:28;;;;;;;9.50;3.33;;;8.30;99.90;;;;;;20950118;28;20024;-77
2021/04/01 04:19:38;;;;;;;12.40;3.55;;;7.60;99.90;;;;;;20946325;28;20036;-78
2021/04/01 04:29:39;;;;;;;7.17;4.20;;;7.70;99.90;;;;;;20936726;28;20423;-78
2021/04/01 04:39:40;;;;;;;11.13;4.10;;;7.80;99.90;;;;;;20912379;28;20492;-75
2021/04/01 04:49:41;;;;;;;7.23;3.50;;;8.10;99.90;;;;;;20912154;28;20120;-75
2021/04/01 05:09:58;;;;;;;13.68;4.30;;;7.50;99.90;;;;;;20910772;28;20545;-75
2021/04/01 05:20:03;;;;;;;16.00;6.83;;;6.80;99.90;;;;;;20909299;28;20116;-75
2021/04/01 05:30:04;;;;;;;17.58;7.63;;;6.60;99.90;;;;;;20908934;28;20407;-75
2021/04/01 05:40:07;;;;;;;21.35;6.05;;;6.80;99.90;;;;;;20913681;28;20037;-77
2021/04/01 06:10:33;;;;;;;13.10;5.20;;;8.10;99.90;;;;;;20926716;28;20086;-78
2021/04/01 06:20:36;;;;;;;10.40;5.65;;;8.80;99.90;;;;;;20904535;28;20503;-78
2021/04/01 06:30:52;;;;;;;13.73;7.20;;;9.40;99.90;;;;;;20965825;28;20111;-77
2021/04/01 06:41:12;;;;;;;15.93;6.43;;;9.80;99.90;;;;;;20955421;28;20040;-77
2021/04/01 06:51:16;;;;;;;12.10;5.15;;;10.30;99.90;;;;;;20924561;28;20033;-77
2021/04/01 07:01:35;;;;;;;12.50;5.95;;;11.30;99.90;;;;;;20922314;28;20051;-78
2021/04/01 07:11:41;;;;;;;11.65;5.70;;;12.20;99.90;;;;;;20912422;28;20027;-78
2021/04/01 07:32:50;;;;;;;12.05;6.35;;;12.80;99.90;;;;;;20938861;28;20056;-78
2021/04/01 07:53:11;;;;;;;14.53;6.10;;;12.90;99.90;;;;;;20916527;28;20094;-78
2021/04/01 08:13:50;;;;;;;16.02;6.95;;;14.70;99.90;;;;;;20915846;28;20491;-78
2021/04/01 08:24:07;;;;;;;10.43;5.97;;;14.90;99.90;;;;;;20914019;28;20037;-78
2021/04/01 08:34:17;;;;;;;18.92;6.57;;;15.20;99.90;;;;;;20891919;28;20103;-78
2021/04/01 08:44:34;;;;;;;12.52;5.88;;;15.90;99.90;;;;;;20877662;28;20021;-77
2021/04/01 08:54:58;;;;;;;14.98;5.22;;;17.00;99.90;;;;;;20992182;23;20409;-79
2021/04/01 09:05:02;;;;;;;15.32;6.30;;;18.90;99.90;;;;;;20993647;28;20533;-78
2021/04/01 09:15:08;;;;;;;15.15;6.55;;;20.60;99.90;;;;;;20962044;28;20036;-79
2021/04/01 09:25:09;;;;;;;12.75;5.05;;;21.20;99.90;;;;;;20893400;28;20084;-78
2021/04/01 09:35:11;;;;;;;20.35;5.72;;;21.40;99.90;;;;;;20829377;28;20105;-78
2021/04/01 09:45:27;;;;;;;15.73;5.35;;;22.40;99.90;;;;;;20838850;28;20036;-78
2021/04/01 09:55:42;;;;;;;10.50;4.53;;;23.70;99.90;;;;;;20936777;28;20115;-79
2021/04/01 10:05:48;;;;;;;12.30;5.18;;;24.30;99.90;;;;;;20874833;28;20142;-79
2021/04/01 10:15:50;;;;;;;13.68;5.15;;;24.60;99.50;;;;;;20871491;28;20521;-79
2021/04/01 10:26:00;;;;;;;12.40;4.82;;;25.00;96.40;;;;;;20851342;28;20594;-79
2021/04/01 10:36:07;;;;;;;12.57;3.60;;;24.70;92.90;;;;;;20828459;28;20033;-79
2021/04/01 10:46:18;;;;;;;7.28;3.38;;;24.30;92.10;;;;;;20846317;28;20052;-79
2021/04/01 10:56:20;;;;;;;;;;;24.20;90.80;;;;;;20907769;28;20037;-78
2021/04/01 11:06:23;;;;;;;7.03;2.67;;;24.50;85.00;;;;;;20890675;28;19917;-79
2021/04/01 11:16:28;;;;;;;4.70;2.08;;;24.70;84.30;;;;;;20872934;28;20048;-79
2021/04/01 11:26:29;;;;;;;7.60;2.95;;;23.60;82.10;;;;;;20898998;28;20246;-79
2021/04/01 11:36:43;;;;;;;5.10;2.00;;;23.60;81.50;;;;;;20890812;28;20419;-78
2021/04/01 11:46:44;;;;;;;4.10;1.90;;;24.50;76.90;;;;;;20913675;28;20033;-79
2021/04/01 11:56:45;;;;;;;5.10;2.42;;;24.50;77.40;;;;;;20915362;28;20108;-79
2021/04/01 12:06:46;;;;;;;5.33;2.27;;;24.80;76.70;;;;;;20875767;28;20059;-79
2021/04/01 12:16:47;;;;;;;5.75;1.73;;;24.70;76.30;;;;;;20871733;28;20033;-78
2021/04/01 12:26:50;;;;;;;13.40;5.50;;;25.30;74.20;;;;;;20868001;28;20048;-78
2021/04/01 12:36:51;;;;;;;8.35;2.65;;;25.00;71.80;;;;;;20894866;28;20021;-78
2021/04/01 12:46:51;;;;;;;3.00;1.60;;;25.00;77.10;;;;;;20861637;28;20095;-79
2021/04/01 12:56:57;;;;;;;8.80;2.00;;;24.80;76.40;;;;;;20864264;28;20048;-79
2021/04/01 13:17:16;;;;;;;5.75;2.20;;;24.70;73.30;;;;;;20844924;28;20025;-78
2021/04/01 13:27:19;;;;;;;5.05;2.22;;;25.50;70.30;;;;;;20844514;28;20507;-79
2021/04/01 13:37:28;;;;;;;6.10;2.03;;;24.70;67.30;;;;;;20853505;28;20088;-79
2021/04/01 13:47:29;;;;;;;7.35;1.90;;;25.30;69.50;;;;;;20861102;28;20041;-79
2021/04/01 14:18:03;;;;;;;5.57;1.85;;;25.00;67.50;;;;;;20878902;28;20097;-79
2021/04/01 14:28:04;;;;;;;4.13;2.25;;;25.40;68.60;;;;;;20883986;28;20038;-81
2021/04/01 14:38:05;;;;;;;15.15;3.50;;;25.10;67.40;;;;;;20883110;28;20033;-79
2021/04/01 14:48:07;;;;;;;5.68;1.90;;;25.50;67.00;;;;;;20921351;23;20481;-78
2021/04/01 14:58:10;;;;;;;5.75;2.00;;;25.20;65.90;;;;;;21009216;28;20090;-79
2021/04/01 15:08:12;;;;;;;4.45;1.55;;;24.90;66.80;;;;;;20989400;28;20483;-79
2021/04/01 15:18:13;;;;;;;7.45;1.90;;;24.60;66.70;;;;;;20908071;28;20076;-78
2021/04/01 15:28:14;;;;;;;;;;;24.90;68.60;;;;;;20904794;28;20044;-78
2021/04/01 15:38:15;;;;;;;4.68;1.52;;;24.90;64.20;;;;;;20939586;28;19909;-78
2021/04/01 15:48:16;;;;;;;6.80;1.73;;;24.60;64.80;;;;;;20913879;28;20057;-78
2021/04/01 15:58:17;;;;;;;3.38;1.52;;;24.60;65.50;;;;;;20904708;28;20034;-78
2021/04/01 16:08:18;;;;;;;2.87;1.37;;;24.30;64.90;;;;;;20923054;28;20044;-78
2021/04/01 16:18:19;;;;;;;8.03;1.90;;;23.80;65.40;;;;;;20919589;28;20056;-78
2021/04/01 16:28:20;;;;;;;10.90;2.20;;;23.70;67.00;;;;;;20887747;28;20039;-78
2021/04/01 16:38:22;;;;;;;3.07;1.37;;;23.50;65.90;;;;;;20872983;28;20033;-78
2021/04/01 16:48:23;;;;;;;5.35;1.70;;;23.40;68.20;;;;;;20873561;28;20491;-78
2021/04/01 16:58:30;;;;;;;3.08;1.60;;;23.20;68.10;;;;;;20858395;28;20029;-78
2021/04/01 17:08:33;;;;;;;5.03;2.00;;;23.10;70.20;;;;;;20863402;28;20160;-80
2021/04/01 17:18:36;;;;;;;6.32;1.83;;;22.80;71.40;;;;;;20881964;28;20100;-78
2021/04/01 17:28:37;;;;;;;8.43;2.13;;;22.10;76.10;;;;;;20872347;28;20033;-78
2021/04/01 17:38:39;;;;;;;6.63;2.07;;;21.40;79.10;;;;;;20883988;28;20112;-78
2021/04/01 17:48:40;;;;;;;8.48;2.13;;;21.00;81.40;;;;;;20851707;28;20041;-78
2021/04/01 17:58:49;;;;;;;4.47;2.30;;;20.10;88.90;;;;;;20816435;28;20040;-77
2021/04/01 18:29:36;;;;;;;3.80;2.60;;;17.90;92.00;;;;;;20924521;28;20029;-78
2021/04/01 18:49:43;;;;;;;5.25;3.22;;;17.20;93.90;;;;;;20920575;28;656899;-78
2021/04/01 18:59:47;;;;;;;8.70;2.83;;;17.10;94.70;;;;;;20949947;28;20422;-79
2021/04/01 19:10:05;;;;;;;5.78;3.05;;;16.80;95.80;;;;;;20949983;28;20452;-80
2021/04/01 19:30:28;;;;;;;6.75;3.28;;;16.60;97.40;;;;;;20942714;28;20037;-78
2021/04/01 19:40:29;;;;;;;11.23;2.92;;;16.50;99.20;;;;;;20891985;28;20040;-78
2021/04/01 19:50:30;;;;;;;7.07;2.60;;;15.70;99.90;;;;;;20883171;28;20087;-78
2021/04/01 20:00:35;;;;;;;4.43;2.83;;;15.20;99.90;;;;;;20853203;28;20044;-78
2021/04/01 20:10:37;;;;;;;5.53;2.60;;;15.20;99.90;;;;;;20863154;28;20032;-78
2021/04/01 20:20:39;;;;;;;5.32;3.03;;;15.40;99.90;;;;;;20901220;28;20097;-78
2021/04/01 20:30:45;;;;;;;10.63;3.37;;;15.40;99.90;;;;;;20897736;28;20033;-78
2021/04/01 20:40:47;;;;;;;6.13;3.25;;;15.20;99.90;;;;;;20879619;28;20057;-78
2021/04/01 20:50:53;;;;;;;9.33;3.50;;;14.80;99.90;;;;;;20958995;23;20083;-79
2021/04/01 21:00:57;;;;;;;7.93;3.00;;;14.80;99.90;;;;;;21021332;28;20032;-80
2021/04/01 21:10:59;;;;;;;5.07;2.90;;;14.50;99.90;;;;;;20968321;28;20036;-78
2021/04/01 21:21:12;;;;;;;5.73;3.00;;;14.40;99.90;;;;;;20958071;28;20059;-79
2021/04/01 21:31:13;;;;;;;12.18;3.47;;;13.80;99.90;;;;;;20993470;28;20294;-78
2021/04/01 21:41:15;;;;;;;10.05;3.30;;;13.60;99.90;;;;;;20986271;28;20025;-79
2021/04/01 21:51:16;;;;;;;7.93;2.72;;;13.90;99.90;;;;;;20977096;28;20231;-77
2021/04/01 22:01:17;;;;;;;8.10;2.78;;;13.30;99.90;;;;;;20969717;28;20033;-78
2021/04/01 22:11:17;;;;;;;9.00;3.40;;;12.70;99.90;;;;;;20975316;28;20048;-78
2021/04/01 22:21:18;;;;;;;10.25;4.00;;;13.20;99.90;;;;;;20976827;28;20029;-78
2021/04/01 22:31:19;;;;;;;6.60;2.83;;;13.00;99.90;;;;;;20976822;28;20629;-80
2021/04/01 22:41:25;;;;;;;7.95;3.63;;;12.60;99.90;;;;;;20944297;28;20060;-80
2021/04/01 22:51:26;;;;;;;7.80;2.88;;;12.10;99.90;;;;;;20950635;28;20052;-80
2021/04/01 23:01:27;;;;;;;7.28;3.22;;;12.20;99.90;;;;;;20941664;28;20040;-80
2021/04/01 23:11:28;;;;;;;8.20;3.45;;;12.30;99.90;;;;;;20937389;28;20037;-77
2021/04/01 23:21:28;;;;;;;5.15;2.72;;;12.20;99.90;;;;;;20954383;28;20068;-79
2021/04/01 23:31:29;;;;;;;5.13;3.17;;;11.80;99.90;;;;;;20951048;28;20024;-78
2021/04/01 23:41:33;;;;;;;4.83;2.93;;;11.30;99.90;;;;;;20974384;28;20033;-77
2021/04/01 23:51:34;;;;;;;7.88;2.85;;;11.40;99.90;;;;;;20928719;28;20056;-79
